sensor_id;sensor_type;location;lat;lon;timestamp;P1;durP1;ratioP1;P2;durP2;ratioP2
23187;SDS011;11762;59.878;17.686;2022-11-15T00:32:42;6.27;;;2.70;;
23187;SDS011;11762;59.878;17.686;2022-11-15T00:35:09;4.30;;;2.30;;
23187;SDS011;11762;59.878;17.686;2022-11-15T00:37:36;6.53;;;2.73;;
23187;SDS011;11762;59.878;17.686;2022-11-15T00:40:03;5.17;;;2.20;;
23187;SDS011;11762;59.878;17.686;2022-11-15T00:42:31;5.60;;;2.40;;
23187;SDS011;11762;59.878;17.686;2022-11-15T00:44:58;4.20;;;2.40;;
23187;SDS011;11762;59.878;17.686;2022-11-15T00:47:25;5.30;;;2.70;;
23187;SDS011;11762;59.878;17.686;2022-11-15T00:49:53;5.23;;;2.97;;
23187;SDS011;11762;59.878;17.686;2022-11-15T00:52:20;4.30;;;2.60;;
23187;SDS011;11762;59.878;17.686;2022-11-15T00:54:48;5.77;;;2.90;;
23187;SDS011;11762;59.878;17.686;2022-11-15T00:57:14;4.77;;;3.00;;
23187;SDS011;11762;59.878;17.686;2022-11-15T00:59:41;6.73;;;3.27;;
23187;SDS011;11762;59.878;17.686;2022-11-15T01:02:08;6.67;;;3.50;;
23187;SDS011;11762;59.878;17.686;2022-11-15T01:04:35;6.43;;;3.10;;
23187;SDS011;11762;59.878;17.686;2022-11-15T01:07:04;5.90;;;3.47;;
23187;SDS011;11762;59.878;17.686;2022-11-15T01:09:31;8.67;;;3.67;;
23187;SDS011;11762;59.878;17.686;2022-11-15T01:11:58;6.30;;;3.87;;
23187;SDS011;11762;59.878;17.686;2022-11-15T01:14:25;7.20;;;3.93;;
23187;SDS011;11762;59.878;17.686;2022-11-15T01:16:52;9.53;;;4.07;;
23187;SDS011;11762;59.878;17.686;2022-11-15T01:19:19;7.50;;;4.30;;
23187;SDS011;11762;59.878;17.686;2022-11-15T01:21:48;7.13;;;4.23;;
23187;SDS011;11762;59.878;17.686;2022-11-15T01:24:17;6.03;;;3.40;;
23187;SDS011;11762;59.878;17.686;2022-11-15T01:26:43;6.83;;;2.70;;
23187;SDS011;11762;59.878;17.686;2022-11-15T01:29:10;5.63;;;2.40;;
23187;SDS011;11762;59.878;17.686;2022-11-15T01:31:37;3.93;;;2.43;;
23187;SDS011;11762;59.878;17.686;2022-11-15T01:34:04;4.30;;;2.73;;
23187;SDS011;11762;59.878;17.686;2022-11-15T01:36:31;5.17;;;3.13;;
23187;SDS011;11762;59.878;17.686;2022-11-15T01:38:58;4.00;;;2.50;;
23187;SDS011;11762;59.878;17.686;2022-11-15T01:41:28;4.77;;;2.70;;
23187;SDS011;11762;59.878;17.686;2022-11-15T01:43:57;4.40;;;2.97;;
23187;SDS011;11762;59.878;17.686;2022-11-15T01:46:39;4.67;;;2.70;;
23187;SDS011;11762;59.878;17.686;2022-11-15T01:49:11;6.43;;;3.73;;
23187;SDS011;11762;59.878;17.686;2022-11-15T01:51:40;5.03;;;2.90;;
23187;SDS011;11762;59.878;17.686;2022-11-15T01:54:08;4.37;;;2.60;;
23187;SDS011;11762;59.878;17.686;2022-11-15T01:56:41;4.33;;;2.57;;
23187;SDS011;11762;59.878;17.686;2022-11-15T01:59:11;5.07;;;2.90;;
23187;SDS011;11762;59.878;17.686;2022-11-15T02:01:39;6.03;;;3.20;;
23187;SDS011;11762;59.878;17.686;2022-11-15T02:04:07;7.37;;;3.03;;
23187;SDS011;11762;59.878;17.686;2022-11-15T02:06:37;4.40;;;2.87;;
23187;SDS011;11762;59.878;17.686;2022-11-15T02:09:05;4.57;;;2.80;;
23187;SDS011;11762;59.878;17.686;2022-11-15T02:11:32;4.20;;;2.90;;
23187;SDS011;11762;59.878;17.686;2022-11-15T02:14:01;7.87;;;2.80;;
23187;SDS011;11762;59.878;17.686;2022-11-15T02:16:32;6.10;;;3.20;;
23187;SDS011;11762;59.878;17.686;2022-11-15T02:19:13;5.67;;;3.43;;
23187;SDS011;11762;59.878;17.686;2022-11-15T02:21:55;7.13;;;3.57;;
23187;SDS011;11762;59.878;17.686;2022-11-15T02:24:43;5.50;;;3.30;;
23187;SDS011;11762;59.878;17.686;2022-11-15T02:30:27;6.60;;;4.00;;
23187;SDS011;11762;59.878;17.686;2022-11-15T02:33:02;7.47;;;4.23;;
23187;SDS011;11762;59.878;17.686;2022-11-15T02:35:37;7.50;;;4.03;;
23187;SDS011;11762;59.878;17.686;2022-11-15T02:38:12;6.20;;;3.97;;
23187;SDS011;11762;59.878;17.686;2022-11-15T02:40:50;7.67;;;4.43;;
23187;SDS011;11762;59.878;17.686;2022-11-15T02:43:24;6.87;;;4.60;;
23187;SDS011;11762;59.878;17.686;2022-11-15T02:46:14;7.40;;;3.93;;
23187;SDS011;11762;59.878;17.686;2022-11-15T02:49:08;8.13;;;4.33;;
23187;SDS011;11762;59.878;17.686;2022-11-15T02:51:37;6.37;;;3.63;;
23187;SDS011;11762;59.878;17.686;2022-11-15T02:54:05;6.60;;;4.17;;
23187;SDS011;11762;59.878;17.686;2022-11-15T02:56:33;7.27;;;3.90;;
23187;SDS011;11762;59.878;17.686;2022-11-15T03:02:08;10.73;;;4.63;;
23187;SDS011;11762;59.878;17.686;2022-11-15T03:04:54;8.63;;;4.30;;
23187;SDS011;11762;59.878;17.686;2022-11-15T03:07:25;7.70;;;4.73;;
23187;SDS011;11762;59.878;17.686;2022-11-15T03:10:01;12.53;;;5.97;;
23187;SDS011;11762;59.878;17.686;2022-11-15T03:12:34;12.00;;;5.80;;
23187;SDS011;11762;59.878;17.686;2022-11-15T03:15:08;15.20;;;6.20;;
23187;SDS011;11762;59.878;17.686;2022-11-15T03:17:45;12.30;;;6.00;;
23187;SDS011;11762;59.878;17.686;2022-11-15T03:20:17;10.10;;;5.10;;
23187;SDS011;11762;59.878;17.686;2022-11-15T03:22:46;17.13;;;6.93;;
23187;SDS011;11762;59.878;17.686;2022-11-15T03:25:16;17.37;;;6.83;;
23187;SDS011;11762;59.878;17.686;2022-11-15T03:27:50;15.90;;;5.97;;
23187;SDS011;11762;59.878;17.686;2022-11-15T03:30:19;13.07;;;7.13;;
23187;SDS011;11762;59.878;17.686;2022-11-15T03:32:49;14.83;;;7.03;;
23187;SDS011;11762;59.878;17.686;2022-11-15T03:35:20;13.20;;;6.93;;
23187;SDS011;11762;59.878;17.686;2022-11-15T03:37:49;13.43;;;6.90;;
23187;SDS011;11762;59.878;17.686;2022-11-15T03:40:22;20.03;;;7.07;;
23187;SDS011;11762;59.878;17.686;2022-11-15T03:42:53;20.27;;;6.77;;
23187;SDS011;11762;59.878;17.686;2022-11-15T03:45:29;18.07;;;6.67;;
23187;SDS011;11762;59.878;17.686;2022-11-15T03:48:02;21.03;;;7.33;;
23187;SDS011;11762;59.878;17.686;2022-11-15T03:50:36;15.63;;;6.60;;
23187;SDS011;11762;59.878;17.686;2022-11-15T03:53:04;20.07;;;7.40;;
23187;SDS011;11762;59.878;17.686;2022-11-15T03:55:31;16.80;;;6.00;;
23187;SDS011;11762;59.878;17.686;2022-11-15T03:57:59;15.23;;;5.90;;
23187;SDS011;11762;59.878;17.686;2022-11-15T04:00:27;15.10;;;6.20;;
23187;SDS011;11762;59.878;17.686;2022-11-15T04:02:54;13.57;;;6.10;;
23187;SDS011;11762;59.878;17.686;2022-11-15T04:05:23;11.90;;;5.93;;
23187;SDS011;11762;59.878;17.686;2022-11-15T04:07:50;9.73;;;5.30;;
23187;SDS011;11762;59.878;17.686;2022-11-15T04:10:17;11.80;;;6.17;;
23187;SDS011;11762;59.878;17.686;2022-11-15T04:12:44;12.90;;;5.80;;
23187;SDS011;11762;59.878;17.686;2022-11-15T04:15:13;13.43;;;5.37;;
23187;SDS011;11762;59.878;17.686;2022-11-15T04:17:42;11.90;;;5.13;;
23187;SDS011;11762;59.878;17.686;2022-11-15T04:20:11;12.43;;;5.30;;
23187;SDS011;11762;59.878;17.686;2022-11-15T04:22:59;11.83;;;4.63;;
23187;SDS011;11762;59.878;17.686;2022-11-15T04:25:45;22.63;;;4.40;;
23187;SDS011;11762;59.878;17.686;2022-11-15T04:28:13;10.97;;;4.30;;
23187;SDS011;11762;59.878;17.686;2022-11-15T04:30:40;9.83;;;4.13;;
23187;SDS011;11762;59.878;17.686;2022-11-15T04:33:07;12.03;;;4.17;;
23187;SDS011;11762;59.878;17.686;2022-11-15T04:35:34;12.23;;;4.03;;
23187;SDS011;11762;59.878;17.686;2022-11-15T04:38:03;9.83;;;3.67;;
23187;SDS011;11762;59.878;17.686;2022-11-15T04:40:30;10.23;;;3.97;;
23187;SDS011;11762;59.878;17.686;2022-11-15T04:42:58;13.10;;;3.37;;
23187;SDS011;11762;59.878;17.686;2022-11-15T04:45:24;7.73;;;3.27;;
23187;SDS011;11762;59.878;17.686;2022-11-15T04:47:51;10.43;;;2.90;;
23187;SDS011;11762;59.878;17.686;2022-11-15T04:50:18;7.57;;;2.60;;
23187;SDS011;11762;59.878;17.686;2022-11-15T04:52:50;9.90;;;2.77;;
23187;SDS011;11762;59.878;17.686;2022-11-15T04:55:19;8.40;;;2.83;;
23187;SDS011;11762;59.878;17.686;2022-11-15T04:57:47;7.97;;;2.40;;
23187;SDS011;11762;59.878;17.686;2022-11-15T05:00:15;10.77;;;1.93;;
23187;SDS011;11762;59.878;17.686;2022-11-15T05:02:43;8.57;;;2.40;;
23187;SDS011;11762;59.878;17.686;2022-11-15T05:05:27;7.13;;;2.60;;
23187;SDS011;11762;59.878;17.686;2022-11-15T05:07:54;8.20;;;2.33;;
23187;SDS011;11762;59.878;17.686;2022-11-15T05:10:22;7.10;;;2.20;;
23187;SDS011;11762;59.878;17.686;2022-11-15T05:12:49;9.20;;;1.87;;
23187;SDS011;11762;59.878;17.686;2022-11-15T05:15:16;9.10;;;1.70;;
23187;SDS011;11762;59.878;17.686;2022-11-15T05:17:43;3.83;;;1.40;;
23187;SDS011;11762;59.878;17.686;2022-11-15T05:20:10;4.37;;;1.17;;
23187;SDS011;11762;59.878;17.686;2022-11-15T05:22:38;8.10;;;1.60;;
23187;SDS011;11762;59.878;17.686;2022-11-15T05:25:05;7.93;;;1.47;;
23187;SDS011;11762;59.878;17.686;2022-11-15T05:27:34;5.30;;;1.07;;
23187;SDS011;11762;59.878;17.686;2022-11-15T05:30:01;5.27;;;1.20;;
23187;SDS011;11762;59.878;17.686;2022-11-15T05:32:28;6.30;;;1.40;;
23187;SDS011;11762;59.878;17.686;2022-11-15T05:34:55;4.33;;;1.00;;
23187;SDS011;11762;59.878;17.686;2022-11-15T05:37:22;4.93;;;0.93;;
23187;SDS011;11762;59.878;17.686;2022-11-15T05:39:49;4.67;;;1.03;;
23187;SDS011;11762;59.878;17.686;2022-11-15T05:42:17;6.53;;;1.37;;
23187;SDS011;11762;59.878;17.686;2022-11-15T05:44:46;11.47;;;2.27;;
23187;SDS011;11762;59.878;17.686;2022-11-15T05:47:15;8.73;;;1.10;;
23187;SDS011;11762;59.878;17.686;2022-11-15T05:49:45;5.13;;;1.10;;
23187;SDS011;11762;59.878;17.686;2022-11-15T05:52:14;6.23;;;1.00;;
23187;SDS011;11762;59.878;17.686;2022-11-15T05:54:43;9.00;;;1.37;;
23187;SDS011;11762;59.878;17.686;2022-11-15T05:57:10;5.20;;;0.90;;
23187;SDS011;11762;59.878;17.686;2022-11-15T05:59:37;10.50;;;1.63;;
23187;SDS011;11762;59.878;17.686;2022-11-15T06:02:07;8.93;;;1.40;;
23187;SDS011;11762;59.878;17.686;2022-11-15T06:04:34;7.27;;;1.83;;
23187;SDS011;11762;59.878;17.686;2022-11-15T06:07:01;6.20;;;1.10;;
23187;SDS011;11762;59.878;17.686;2022-11-15T06:09:28;9.83;;;1.70;;
23187;SDS011;11762;59.878;17.686;2022-11-15T06:11:55;5.60;;;1.10;;
23187;SDS011;11762;59.878;17.686;2022-11-15T06:14:22;6.63;;;1.33;;
23187;SDS011;11762;59.878;17.686;2022-11-15T06:16:49;4.57;;;1.83;;
23187;SDS011;11762;59.878;17.686;2022-11-15T06:19:17;8.87;;;1.40;;
23187;SDS011;11762;59.878;17.686;2022-11-15T06:21:44;4.00;;;1.27;;
23187;SDS011;11762;59.878;17.686;2022-11-15T06:24:11;6.43;;;1.90;;
23187;SDS011;11762;59.878;17.686;2022-11-15T06:26:38;4.53;;;1.60;;
23187;SDS011;11762;59.878;17.686;2022-11-15T06:29:05;3.73;;;1.50;;
23187;SDS011;11762;59.878;17.686;2022-11-15T06:31:32;9.97;;;1.57;;
23187;SDS011;11762;59.878;17.686;2022-11-15T06:34:00;9.07;;;1.50;;
23187;SDS011;11762;59.878;17.686;2022-11-15T06:36:28;7.70;;;1.60;;
23187;SDS011;11762;59.878;17.686;2022-11-15T06:38:56;5.53;;;1.27;;
23187;SDS011;11762;59.878;17.686;2022-11-15T06:41:23;3.17;;;1.30;;
23187;SDS011;11762;59.878;17.686;2022-11-15T06:43:50;5.77;;;1.23;;
23187;SDS011;11762;59.878;17.686;2022-11-15T06:46:17;2.27;;;1.30;;
23187;SDS011;11762;59.878;17.686;2022-11-15T06:48:44;9.90;;;1.83;;
23187;SDS011;11762;59.878;17.686;2022-11-15T06:51:11;4.77;;;1.73;;
23187;SDS011;11762;59.878;17.686;2022-11-15T06:53:39;6.80;;;1.50;;
23187;SDS011;11762;59.878;17.686;2022-11-15T06:56:06;9.33;;;1.97;;
23187;SDS011;11762;59.878;17.686;2022-11-15T06:58:34;6.87;;;1.40;;
23187;SDS011;11762;59.878;17.686;2022-11-15T07:01:01;7.67;;;1.40;;
23187;SDS011;11762;59.878;17.686;2022-11-15T07:03:30;5.70;;;1.70;;
23187;SDS011;11762;59.878;17.686;2022-11-15T07:05:57;6.63;;;1.07;;
23187;SDS011;11762;59.878;17.686;2022-11-15T07:08:26;5.27;;;1.40;;
23187;SDS011;11762;59.878;17.686;2022-11-15T07:10:58;7.50;;;1.50;;
23187;SDS011;11762;59.878;17.686;2022-11-15T07:13:27;3.20;;;1.63;;
23187;SDS011;11762;59.878;17.686;2022-11-15T07:15:57;8.83;;;1.87;;
23187;SDS011;11762;59.878;17.686;2022-11-15T07:18:27;6.13;;;1.43;;
23187;SDS011;11762;59.878;17.686;2022-11-15T07:20:54;8.20;;;1.37;;
23187;SDS011;11762;59.878;17.686;2022-11-15T07:23:21;3.07;;;1.07;;
23187;SDS011;11762;59.878;17.686;2022-11-15T07:25:48;7.33;;;1.30;;
23187;SDS011;11762;59.878;17.686;2022-11-15T07:28:17;2.37;;;0.97;;
23187;SDS011;11762;59.878;17.686;2022-11-15T07:30:44;2.57;;;1.13;;
23187;SDS011;11762;59.878;17.686;2022-11-15T07:33:11;4.07;;;1.00;;
23187;SDS011;11762;59.878;17.686;2022-11-15T07:35:37;3.17;;;1.30;;
23187;SDS011;11762;59.878;17.686;2022-11-15T07:38:05;4.40;;;0.80;;
23187;SDS011;11762;59.878;17.686;2022-11-15T07:40:31;3.33;;;0.90;;
23187;SDS011;11762;59.878;17.686;2022-11-15T07:42:59;3.27;;;1.10;;
23187;SDS011;11762;59.878;17.686;2022-11-15T07:45:28;9.90;;;1.50;;
23187;SDS011;11762;59.878;17.686;2022-11-15T07:47:55;4.03;;;1.20;;
23187;SDS011;11762;59.878;17.686;2022-11-15T07:50:22;6.80;;;1.10;;
23187;SDS011;11762;59.878;17.686;2022-11-15T07:52:53;3.13;;;1.20;;
23187;SDS011;11762;59.878;17.686;2022-11-15T07:55:20;5.33;;;1.30;;
23187;SDS011;11762;59.878;17.686;2022-11-15T07:57:47;7.83;;;1.43;;
23187;SDS011;11762;59.878;17.686;2022-11-15T08:00:15;8.13;;;1.60;;
23187;SDS011;11762;59.878;17.686;2022-11-15T08:02:44;7.00;;;1.17;;
23187;SDS011;11762;59.878;17.686;2022-11-15T08:05:11;10.10;;;1.77;;
23187;SDS011;11762;59.878;17.686;2022-11-15T08:07:38;7.33;;;1.40;;
23187;SDS011;11762;59.878;17.686;2022-11-15T08:10:05;6.37;;;1.37;;
23187;SDS011;11762;59.878;17.686;2022-11-15T08:12:33;4.50;;;1.20;;
23187;SDS011;11762;59.878;17.686;2022-11-15T08:15:00;4.63;;;1.20;;
23187;SDS011;11762;59.878;17.686;2022-11-15T08:17:28;3.77;;;1.20;;
23187;SDS011;11762;59.878;17.686;2022-11-15T08:19:59;5.07;;;1.10;;
23187;SDS011;11762;59.878;17.686;2022-11-15T08:22:26;5.00;;;1.30;;
23187;SDS011;11762;59.878;17.686;2022-11-15T08:24:53;5.30;;;1.30;;
23187;SDS011;11762;59.878;17.686;2022-11-15T08:27:20;8.53;;;1.53;;
23187;SDS011;11762;59.878;17.686;2022-11-15T08:29:48;7.67;;;1.50;;
23187;SDS011;11762;59.878;17.686;2022-11-15T08:32:15;4.47;;;1.17;;
23187;SDS011;11762;59.878;17.686;2022-11-15T08:34:42;5.97;;;1.27;;
23187;SDS011;11762;59.878;17.686;2022-11-15T08:37:11;10.70;;;1.67;;
23187;SDS011;11762;59.878;17.686;2022-11-15T08:39:38;3.53;;;1.17;;
23187;SDS011;11762;59.878;17.686;2022-11-15T08:42:05;6.17;;;1.30;;
23187;SDS011;11762;59.878;17.686;2022-11-15T08:44:32;6.27;;;1.10;;
23187;SDS011;11762;59.878;17.686;2022-11-15T08:46:59;10.73;;;1.40;;
23187;SDS011;11762;59.878;17.686;2022-11-15T08:49:25;5.07;;;1.43;;
23187;SDS011;11762;59.878;17.686;2022-11-15T08:51:53;4.17;;;1.00;;
23187;SDS011;11762;59.878;17.686;2022-11-15T08:54:21;5.27;;;0.70;;
23187;SDS011;11762;59.878;17.686;2022-11-15T08:56:48;6.83;;;0.97;;
23187;SDS011;11762;59.878;17.686;2022-11-15T08:59:15;6.53;;;0.90;;
23187;SDS011;11762;59.878;17.686;2022-11-15T09:01:42;6.23;;;0.83;;
23187;SDS011;11762;59.878;17.686;2022-11-15T09:04:09;5.20;;;0.63;;
23187;SDS011;11762;59.878;17.686;2022-11-15T09:06:36;4.90;;;0.80;;
23187;SDS011;11762;59.878;17.686;2022-11-15T09:09:03;7.77;;;1.00;;
23187;SDS011;11762;59.878;17.686;2022-11-15T09:11:31;3.77;;;0.70;;
23187;SDS011;11762;59.878;17.686;2022-11-15T09:13:58;6.30;;;0.90;;
23187;SDS011;11762;59.878;17.686;2022-11-15T09:16:25;3.20;;;0.80;;
23187;SDS011;11762;59.878;17.686;2022-11-15T09:18:52;4.03;;;0.70;;
23187;SDS011;11762;59.878;17.686;2022-11-15T09:21:20;11.07;;;1.13;;
23187;SDS011;11762;59.878;17.686;2022-11-15T09:23:49;2.47;;;0.57;;
23187;SDS011;11762;59.878;17.686;2022-11-15T09:26:16;3.83;;;0.70;;
23187;SDS011;11762;59.878;17.686;2022-11-15T09:28:45;2.33;;;0.47;;
23187;SDS011;11762;59.878;17.686;2022-11-15T09:31:12;7.87;;;0.60;;
23187;SDS011;11762;59.878;17.686;2022-11-15T09:33:39;2.03;;;0.70;;
23187;SDS011;11762;59.878;17.686;2022-11-15T09:36:06;4.70;;;1.10;;
23187;SDS011;11762;59.878;17.686;2022-11-15T09:38:34;5.97;;;0.83;;
23187;SDS011;11762;59.878;17.686;2022-11-15T09:44:27;5.30;;;1.10;;
23187;SDS011;11762;59.878;17.686;2022-11-15T09:47:06;5.80;;;0.90;;
23187;SDS011;11762;59.878;17.686;2022-11-15T09:49:50;6.20;;;0.77;;
23187;SDS011;11762;59.878;17.686;2022-11-15T09:52:18;4.10;;;0.80;;
23187;SDS011;11762;59.878;17.686;2022-11-15T09:54:47;6.73;;;0.70;;
23187;SDS011;11762;59.878;17.686;2022-11-15T09:57:16;1.57;;;0.60;;
23187;SDS011;11762;59.878;17.686;2022-11-15T10:02:50;4.53;;;1.23;;
23187;SDS011;11762;59.878;17.686;2022-11-15T10:05:39;6.93;;;0.67;;
23187;SDS011;11762;59.878;17.686;2022-11-15T10:08:13;3.70;;;0.67;;
23187;SDS011;11762;59.878;17.686;2022-11-15T10:11:15;3.37;;;0.87;;
23187;SDS011;11762;59.878;17.686;2022-11-15T10:13:46;3.67;;;0.97;;
23187;SDS011;11762;59.878;17.686;2022-11-15T10:16:20;4.90;;;0.70;;
23187;SDS011;11762;59.878;17.686;2022-11-15T10:19:14;2.13;;;0.57;;
23187;SDS011;11762;59.878;17.686;2022-11-15T10:21:50;4.57;;;0.70;;
23187;SDS011;11762;59.878;17.686;2022-11-15T10:24:33;1.50;;;0.50;;
23187;SDS011;11762;59.878;17.686;2022-11-15T10:27:06;4.93;;;0.83;;
23187;SDS011;11762;59.878;17.686;2022-11-15T10:29:40;1.63;;;0.50;;
23187;SDS011;11762;59.878;17.686;2022-11-15T10:32:11;1.33;;;0.60;;
23187;SDS011;11762;59.878;17.686;2022-11-15T10:34:39;4.47;;;0.60;;
23187;SDS011;11762;59.878;17.686;2022-11-15T10:37:06;5.77;;;0.50;;
23187;SDS011;11762;59.878;17.686;2022-11-15T10:39:33;1.37;;;0.40;;
23187;SDS011;11762;59.878;17.686;2022-11-15T10:42:14;7.27;;;1.20;;
23187;SDS011;11762;59.878;17.686;2022-11-15T10:44:43;3.87;;;0.80;;
23187;SDS011;11762;59.878;17.686;2022-11-15T10:47:25;3.83;;;0.67;;
23187;SDS011;11762;59.878;17.686;2022-11-15T10:49:58;1.77;;;0.43;;
23187;SDS011;11762;59.878;17.686;2022-11-15T10:52:31;5.07;;;0.80;;
23187;SDS011;11762;59.878;17.686;2022-11-15T10:55:01;2.20;;;0.60;;
23187;SDS011;11762;59.878;17.686;2022-11-15T10:57:48;2.07;;;0.60;;
23187;SDS011;11762;59.878;17.686;2022-11-15T11:00:26;3.27;;;0.80;;
23187;SDS011;11762;59.878;17.686;2022-11-15T11:02:58;3.60;;;0.70;;
23187;SDS011;11762;59.878;17.686;2022-11-15T11:05:28;3.87;;;0.63;;
23187;SDS011;11762;59.878;17.686;2022-11-15T11:07:57;4.97;;;0.60;;
23187;SDS011;11762;59.878;17.686;2022-11-15T11:10:26;5.27;;;1.13;;
23187;SDS011;11762;59.878;17.686;2022-11-15T11:12:54;6.23;;;1.30;;
23187;SDS011;11762;59.878;17.686;2022-11-15T11:15:21;3.80;;;0.70;;
23187;SDS011;11762;59.878;17.686;2022-11-15T11:18:00;3.83;;;0.53;;
23187;SDS011;11762;59.878;17.686;2022-11-15T11:20:36;2.90;;;0.50;;
23187;SDS011;11762;59.878;17.686;2022-11-15T11:23:15;4.33;;;0.70;;
23187;SDS011;11762;59.878;17.686;2022-11-15T11:26:04;6.20;;;1.10;;
23187;SDS011;11762;59.878;17.686;2022-11-15T11:28:41;7.27;;;0.70;;
23187;SDS011;11762;59.878;17.686;2022-11-15T11:31:18;2.37;;;0.47;;
23187;SDS011;11762;59.878;17.686;2022-11-15T11:34:04;5.57;;;0.70;;
23187;SDS011;11762;59.878;17.686;2022-11-15T11:36:43;3.40;;;0.70;;
23187;SDS011;11762;59.878;17.686;2022-11-15T11:39:21;2.60;;;0.73;;
23187;SDS011;11762;59.878;17.686;2022-11-15T11:41:55;4.37;;;0.70;;
23187;SDS011;11762;59.878;17.686;2022-11-15T11:44:30;3.00;;;0.50;;
23187;SDS011;11762;59.878;17.686;2022-11-15T11:47:03;2.97;;;0.67;;
23187;SDS011;11762;59.878;17.686;2022-11-15T11:49:39;6.43;;;0.60;;
23187;SDS011;11762;59.878;17.686;2022-11-15T11:52:13;4.60;;;0.80;;
23187;SDS011;11762;59.878;17.686;2022-11-15T11:54:47;1.50;;;0.50;;
23187;SDS011;11762;59.878;17.686;2022-11-15T11:57:23;6.00;;;0.70;;
23187;SDS011;11762;59.878;17.686;2022-11-15T11:59:58;1.27;;;0.43;;
23187;SDS011;11762;59.878;17.686;2022-11-15T12:02:30;1.67;;;0.43;;
23187;SDS011;11762;59.878;17.686;2022-11-15T12:05:03;6.70;;;0.57;;
23187;SDS011;11762;59.878;17.686;2022-11-15T12:07:36;4.27;;;0.80;;
23187;SDS011;11762;59.878;17.686;2022-11-15T12:10:11;4.50;;;0.60;;
23187;SDS011;11762;59.878;17.686;2022-11-15T12:12:44;3.83;;;0.77;;
23187;SDS011;11762;59.878;17.686;2022-11-15T12:15:18;1.87;;;0.30;;
23187;SDS011;11762;59.878;17.686;2022-11-15T12:17:47;4.27;;;0.80;;
23187;SDS011;11762;59.878;17.686;2022-11-15T12:20:17;4.37;;;0.60;;
23187;SDS011;11762;59.878;17.686;2022-11-15T12:22:47;4.30;;;0.93;;
23187;SDS011;11762;59.878;17.686;2022-11-15T12:25:20;4.63;;;0.63;;
23187;SDS011;11762;59.878;17.686;2022-11-15T12:27:50;13.10;;;0.90;;
23187;SDS011;11762;59.878;17.686;2022-11-15T12:30:22;2.37;;;0.73;;
23187;SDS011;11762;59.878;17.686;2022-11-15T12:32:52;3.07;;;0.50;;
23187;SDS011;11762;59.878;17.686;2022-11-15T12:35:25;4.50;;;0.77;;
23187;SDS011;11762;59.878;17.686;2022-11-15T12:37:56;6.87;;;0.70;;
23187;SDS011;11762;59.878;17.686;2022-11-15T12:40:24;3.50;;;0.80;;
23187;SDS011;11762;59.878;17.686;2022-11-15T12:45:56;3.00;;;0.77;;
23187;SDS011;11762;59.878;17.686;2022-11-15T12:57:28;3.93;;;0.70;;
23187;SDS011;11762;59.878;17.686;2022-11-15T12:59:58;3.27;;;0.50;;
23187;SDS011;11762;59.878;17.686;2022-11-15T13:02:29;1.50;;;0.47;;
23187;SDS011;11762;59.878;17.686;2022-11-15T13:08:03;3.13;;;0.60;;
23187;SDS011;11762;59.878;17.686;2022-11-15T13:10:34;3.03;;;0.87;;
23187;SDS011;11762;59.878;17.686;2022-11-15T13:13:02;1.93;;;0.67;;
23187;SDS011;11762;59.878;17.686;2022-11-15T13:15:31;4.97;;;1.10;;
23187;SDS011;11762;59.878;17.686;2022-11-15T13:18:25;3.47;;;0.60;;
23187;SDS011;11762;59.878;17.686;2022-11-15T13:20:57;6.30;;;0.90;;
23187;SDS011;11762;59.878;17.686;2022-11-15T13:23:25;11.00;;;1.23;;
23187;SDS011;11762;59.878;17.686;2022-11-15T13:25:57;1.50;;;0.60;;
23187;SDS011;11762;59.878;17.686;2022-11-15T13:28:36;6.73;;;0.70;;
23187;SDS011;11762;59.878;17.686;2022-11-15T13:31:18;1.83;;;0.53;;
23187;SDS011;11762;59.878;17.686;2022-11-15T13:33:49;4.60;;;0.73;;
23187;SDS011;11762;59.878;17.686;2022-11-15T13:36:18;1.47;;;0.50;;
23187;SDS011;11762;59.878;17.686;2022-11-15T13:38:53;8.87;;;0.90;;
23187;SDS011;11762;59.878;17.686;2022-11-15T13:41:24;0.90;;;0.43;;
23187;SDS011;11762;59.878;17.686;2022-11-15T13:43:53;1.33;;;0.47;;
23187;SDS011;11762;59.878;17.686;2022-11-15T13:46:22;8.80;;;0.93;;
23187;SDS011;11762;59.878;17.686;2022-11-15T13:48:51;4.43;;;0.80;;
23187;SDS011;11762;59.878;17.686;2022-11-15T13:51:21;1.57;;;0.53;;
23187;SDS011;11762;59.878;17.686;2022-11-15T13:53:54;6.93;;;0.97;;
23187;SDS011;11762;59.878;17.686;2022-11-15T13:56:25;5.17;;;0.90;;
23187;SDS011;11762;59.878;17.686;2022-11-15T13:58:56;5.40;;;0.80;;
23187;SDS011;11762;59.878;17.686;2022-11-15T14:01:30;2.20;;;0.50;;
23187;SDS011;11762;59.878;17.686;2022-11-15T14:03:58;8.87;;;0.90;;
23187;SDS011;11762;59.878;17.686;2022-11-15T14:06:28;3.77;;;0.43;;
23187;SDS011;11762;59.878;17.686;2022-11-15T14:12:24;1.37;;;0.50;;
23187;SDS011;11762;59.878;17.686;2022-11-15T14:14:53;3.63;;;0.67;;
23187;SDS011;11762;59.878;17.686;2022-11-15T14:17:21;8.77;;;0.93;;
23187;SDS011;11762;59.878;17.686;2022-11-15T14:19:59;4.60;;;0.80;;
23187;SDS011;11762;59.878;17.686;2022-11-15T14:22:27;2.87;;;0.43;;
23187;SDS011;11762;59.878;17.686;2022-11-15T14:25:05;2.10;;;0.60;;
23187;SDS011;11762;59.878;17.686;2022-11-15T14:27:42;3.40;;;0.70;;
23187;SDS011;11762;59.878;17.686;2022-11-15T14:30:14;3.93;;;0.63;;
23187;SDS011;11762;59.878;17.686;2022-11-15T14:32:44;5.20;;;0.70;;
23187;SDS011;11762;59.878;17.686;2022-11-15T14:35:14;5.13;;;0.77;;
23187;SDS011;11762;59.878;17.686;2022-11-15T14:37:43;1.57;;;0.60;;
23187;SDS011;11762;59.878;17.686;2022-11-15T14:40:12;2.90;;;0.80;;
23187;SDS011;11762;59.878;17.686;2022-11-15T14:42:42;4.53;;;0.97;;
23187;SDS011;11762;59.878;17.686;2022-11-15T14:45:11;4.67;;;1.17;;
23187;SDS011;11762;59.878;17.686;2022-11-15T14:47:40;2.97;;;0.93;;
23187;SDS011;11762;59.878;17.686;2022-11-15T14:50:10;2.77;;;0.93;;
23187;SDS011;11762;59.878;17.686;2022-11-15T14:52:38;3.23;;;0.70;;
23187;SDS011;11762;59.878;17.686;2022-11-15T14:55:10;5.87;;;0.97;;
23187;SDS011;11762;59.878;17.686;2022-11-15T14:57:43;2.70;;;0.80;;
23187;SDS011;11762;59.878;17.686;2022-11-15T15:00:10;5.23;;;0.90;;
23187;SDS011;11762;59.878;17.686;2022-11-15T15:02:39;6.90;;;0.77;;
23187;SDS011;11762;59.878;17.686;2022-11-15T15:05:12;11.67;;;0.90;;
23187;SDS011;11762;59.878;17.686;2022-11-15T15:07:41;2.90;;;0.80;;
23187;SDS011;11762;59.878;17.686;2022-11-15T15:10:09;2.97;;;1.00;;
23187;SDS011;11762;59.878;17.686;2022-11-15T15:12:36;3.83;;;1.00;;
23187;SDS011;11762;59.878;17.686;2022-11-15T15:15:06;7.13;;;0.93;;
23187;SDS011;11762;59.878;17.686;2022-11-15T15:17:37;1.87;;;0.60;;
23187;SDS011;11762;59.878;17.686;2022-11-15T15:20:05;5.83;;;1.10;;
23187;SDS011;11762;59.878;17.686;2022-11-15T15:22:32;2.73;;;0.80;;
23187;SDS011;11762;59.878;17.686;2022-11-15T15:24:59;3.17;;;0.77;;
23187;SDS011;11762;59.878;17.686;2022-11-15T15:27:26;4.20;;;0.90;;
23187;SDS011;11762;59.878;17.686;2022-11-15T15:29:53;4.30;;;1.03;;
23187;SDS011;11762;59.878;17.686;2022-11-15T15:32:21;2.80;;;0.80;;
23187;SDS011;11762;59.878;17.686;2022-11-15T15:34:48;6.67;;;0.90;;
23187;SDS011;11762;59.878;17.686;2022-11-15T15:37:22;1.30;;;0.70;;
23187;SDS011;11762;59.878;17.686;2022-11-15T15:39:50;6.93;;;1.33;;
23187;SDS011;11762;59.878;17.686;2022-11-15T15:42:18;4.33;;;0.97;;
23187;SDS011;11762;59.878;17.686;2022-11-15T15:44:45;3.97;;;0.73;;
23187;SDS011;11762;59.878;17.686;2022-11-15T15:47:12;3.77;;;0.80;;
23187;SDS011;11762;59.878;17.686;2022-11-15T15:49:43;1.63;;;0.80;;
23187;SDS011;11762;59.878;17.686;2022-11-15T15:52:11;3.13;;;1.27;;
23187;SDS011;11762;59.878;17.686;2022-11-15T15:54:38;2.87;;;0.63;;